createdAt,value
2018-05-14T00:01:58.061Z,11.07
2018-05-14T00:04:24.157Z,10.17
2018-05-14T00:06:50.282Z,10.63
2018-05-14T00:09:16.446Z,10.97
2018-05-14T00:11:42.546Z,12.93
2018-05-14T00:14:08.671Z,12.10
2018-05-14T00:16:34.760Z,9.03
2018-05-14T00:19:00.860Z,12.60
2018-05-14T00:21:26.957Z,12.47
2018-05-14T00:23:53.843Z,11.57
2018-05-14T00:26:19.976Z,15.47
2018-05-14T00:28:46.057Z,14.70
2018-05-14T00:31:12.153Z,12.67
2018-05-14T00:33:38.275Z,12.70
2018-05-14T00:36:04.363Z,15.00
2018-05-14T00:38:30.455Z,11.20
2018-05-14T00:40:56.562Z,13.47
2018-05-14T00:43:22.723Z,12.80
2018-05-14T00:45:48.793Z,13.83
2018-05-14T00:48:14.893Z,12.80
2018-05-14T00:50:40.965Z,13.27
2018-05-14T00:53:07.136Z,14.00
2018-05-14T00:55:33.217Z,12.00
2018-05-14T00:57:59.301Z,11.63
2018-05-14T01:00:25.461Z,12.33
2018-05-14T01:02:51.571Z,11.50
2018-05-14T01:05:17.687Z,9.33
2018-05-14T01:07:43.851Z,14.90
2018-05-14T01:10:09.958Z,11.13
2018-05-14T01:12:36.041Z,10.50
2018-05-14T01:15:02.130Z,17.77
2018-05-14T01:17:28.319Z,13.97
2018-05-14T01:19:54.419Z,10.77
2018-05-14T01:22:20.511Z,12.10
2018-05-14T01:24:52.749Z,13.73
2018-05-14T01:27:18.881Z,18.13
2018-05-14T01:29:44.966Z,15.77
2018-05-14T01:32:11.109Z,13.40
2018-05-14T01:34:37.231Z,15.30
2018-05-14T01:37:03.374Z,13.27
2018-05-14T01:39:29.493Z,12.43
2018-05-14T01:41:55.598Z,14.57
2018-05-14T01:44:21.741Z,14.27
2018-05-14T01:46:47.869Z,15.27
2018-05-14T01:49:13.979Z,12.30
2018-05-14T01:51:40.112Z,11.93
2018-05-14T01:54:06.213Z,12.37
2018-05-14T01:56:32.298Z,15.93
2018-05-14T01:58:58.433Z,16.97
2018-05-14T02:01:24.541Z,10.97
2018-05-14T02:03:50.665Z,18.00
2018-05-14T02:06:16.776Z,19.20
2018-05-14T02:08:42.893Z,17.87
2018-05-14T02:11:09.015Z,21.10
2018-05-14T02:13:35.134Z,19.00
2018-05-14T02:16:01.326Z,18.73
2018-05-14T02:18:27.435Z,18.83
2018-05-14T02:20:53.558Z,21.47
2018-05-14T02:23:19.649Z,21.17
2018-05-14T02:25:46.518Z,20.10
2018-05-14T02:28:12.619Z,23.07
2018-05-14T02:30:38.871Z,21.47
2018-05-14T02:33:05.737Z,21.50
2018-05-14T02:35:32.573Z,24.83
2018-05-14T02:37:58.693Z,23.03
2018-05-14T02:40:24.819Z,20.20
2018-05-14T02:42:50.925Z,22.73
2018-05-14T02:45:17.011Z,20.00
2018-05-14T02:47:43.233Z,20.40
2018-05-14T02:50:09.331Z,19.27
2018-05-14T02:52:35.427Z,18.80
2018-05-14T02:55:01.591Z,21.77
2018-05-14T02:57:27.689Z,24.23
2018-05-14T02:59:53.817Z,16.90
2018-05-14T03:02:20.062Z,20.80
2018-05-14T03:04:46.216Z,20.20
2018-05-14T03:07:12.293Z,19.77
2018-05-14T03:09:39.161Z,21.00
2018-05-14T03:12:05.997Z,22.43
2018-05-14T03:14:32.122Z,18.30
2018-05-14T03:16:58.279Z,16.80
2018-05-14T03:19:25.121Z,18.00
2018-05-14T03:21:51.250Z,17.23
2018-05-14T03:24:17.382Z,19.33
2018-05-14T03:26:43.494Z,17.40
2018-05-14T03:29:09.601Z,16.93
2018-05-14T03:31:36.462Z,19.60
2018-05-14T03:34:03.321Z,20.17
2018-05-14T03:36:30.146Z,21.07
2018-05-14T03:38:56.226Z,18.90
2018-05-14T03:41:22.321Z,19.13
2018-05-14T03:43:48.397Z,16.63
2018-05-14T03:46:14.454Z,24.73
2018-05-14T03:48:40.549Z,18.33
2018-05-14T03:51:07.359Z,15.43
2018-05-14T03:53:33.478Z,19.77
2018-05-14T03:55:59.608Z,20.40
2018-05-14T03:58:38.117Z,17.37
2018-05-14T04:01:13.973Z,20.80
2018-05-14T04:03:52.535Z,17.10
2018-05-14T04:06:26.616Z,19.83
2018-05-14T04:08:52.763Z,17.77
2018-05-14T04:11:18.842Z,16.37
2018-05-14T04:13:44.950Z,21.03
2018-05-14T04:16:11.789Z,23.20
2018-05-14T04:18:37.848Z,19.13
2018-05-14T04:21:03.927Z,23.90
2018-05-14T04:23:30.057Z,27.67
2018-05-14T04:25:56.154Z,20.37
2018-05-14T04:28:22.366Z,27.17
2018-05-14T04:30:48.503Z,25.10
2018-05-14T04:33:14.579Z,21.47
2018-05-14T04:35:41.425Z,22.17
2018-05-14T04:38:07.589Z,27.77
2018-05-14T04:40:34.427Z,22.47
2018-05-14T04:43:00.588Z,19.30
2018-05-14T04:45:26.693Z,20.70
2018-05-14T04:47:52.777Z,24.20
2018-05-14T04:50:18.857Z,21.93
2018-05-14T04:52:44.962Z,24.30
2018-05-14T04:55:11.034Z,30.93
2018-05-14T04:57:37.133Z,24.47
2018-05-14T05:00:03.198Z,25.73
2018-05-14T05:02:29.272Z,24.10
2018-05-14T05:04:55.362Z,20.30
2018-05-14T05:07:21.457Z,26.87
2018-05-14T05:09:48.269Z,21.33
2018-05-14T05:12:14.465Z,23.37
2018-05-14T05:14:40.569Z,22.87
2018-05-14T05:17:06.654Z,21.07
2018-05-14T05:19:33.451Z,27.37
2018-05-14T05:21:59.550Z,22.13
2018-05-14T05:24:25.621Z,26.40
2018-05-14T05:26:51.721Z,29.37
2018-05-14T05:29:17.855Z,24.43
2018-05-14T05:31:43.921Z,28.60
2018-05-14T05:34:10.027Z,28.40
2018-05-14T05:36:36.821Z,28.47
2018-05-14T05:39:02.948Z,30.67
2018-05-14T05:41:29.066Z,27.80
2018-05-14T05:43:55.869Z,26.90
2018-05-14T05:46:21.967Z,30.87
2018-05-14T05:48:48.058Z,27.97
2018-05-14T05:51:14.153Z,32.70
2018-05-14T05:53:40.311Z,28.07
2018-05-14T05:56:06.393Z,31.57
2018-05-14T05:58:32.449Z,29.57
2018-05-14T06:00:59.317Z,31.40
2018-05-14T06:03:25.394Z,29.30
2018-05-14T06:05:51.457Z,27.87
2018-05-14T06:08:17.552Z,29.57
2018-05-14T06:10:43.605Z,28.93
2018-05-14T06:13:10.478Z,27.57
2018-05-14T06:15:36.585Z,31.23
2018-05-14T06:18:02.681Z,30.17
2018-05-14T06:20:29.529Z,29.03
2018-05-14T06:22:55.602Z,25.93
2018-05-14T06:25:21.711Z,28.67
2018-05-14T06:27:48.605Z,33.13
2018-05-14T06:30:14.669Z,25.80
2018-05-14T06:32:40.777Z,24.17
2018-05-14T06:35:06.863Z,23.90
2018-05-14T06:37:32.990Z,22.87
2018-05-14T06:39:59.123Z,25.67
2018-05-14T06:42:25.205Z,26.90
2018-05-14T06:44:52.054Z,25.57
2018-05-14T06:47:18.878Z,22.30
2018-05-14T06:49:45.067Z,29.57
2018-05-14T06:52:11.181Z,25.70
2018-05-14T06:54:37.199Z,26.40
2018-05-14T06:57:03.315Z,29.50
2018-05-14T06:59:30.150Z,23.87
2018-05-14T07:01:56.262Z,27.73
2018-05-14T07:04:23.089Z,28.17
2018-05-14T07:06:49.190Z,27.70
2018-05-14T07:09:15.295Z,26.40
2018-05-14T07:11:42.122Z,26.77
2018-05-14T07:14:08.238Z,27.10
2018-05-14T07:16:34.365Z,26.03
2018-05-14T07:19:00.487Z,25.10
2018-05-14T07:21:26.570Z,31.17
2018-05-14T07:23:52.686Z,32.43
2018-05-14T07:26:18.786Z,30.00
2018-05-14T07:28:45.614Z,29.20
2018-05-14T07:31:11.737Z,30.07
2018-05-14T07:33:37.836Z,30.63
2018-05-14T07:36:03.931Z,30.53
2018-05-14T07:38:30.168Z,28.50
2018-05-14T07:40:56.134Z,23.63
2018-05-14T07:43:23.003Z,29.23
2018-05-14T07:45:49.090Z,25.77
2018-05-14T07:48:15.181Z,23.30
2018-05-14T07:50:41.233Z,23.93
2018-05-14T07:53:07.361Z,31.13
2018-05-14T07:55:33.429Z,21.27
2018-05-14T07:57:59.509Z,21.43
2018-05-14T08:00:26.338Z,17.03
2018-05-14T08:02:52.425Z,20.00
2018-05-14T08:05:18.482Z,18.23
2018-05-14T08:07:45.317Z,19.60
2018-05-14T08:10:11.385Z,16.00
2018-05-14T08:12:37.472Z,15.40
2018-05-14T08:15:04.313Z,24.13
2018-05-14T08:17:30.410Z,19.43
2018-05-14T08:19:56.502Z,15.70
2018-05-14T08:22:23.300Z,14.13
2018-05-14T08:24:49.390Z,15.93
2018-05-14T08:27:16.189Z,16.53
2018-05-14T08:29:42.288Z,14.10
2018-05-14T08:32:09.105Z,17.27
2018-05-14T08:34:35.164Z,13.83
2018-05-14T08:37:01.351Z,10.53
2018-05-14T08:39:27.365Z,17.73
2018-05-14T08:41:54.211Z,10.53
2018-05-14T08:44:21.037Z,13.73
2018-05-14T08:46:47.130Z,14.87
2018-05-14T08:49:13.193Z,16.20
2018-05-14T08:51:39.274Z,11.73
2018-05-14T08:54:05.346Z,15.13
2018-05-14T08:56:31.426Z,13.60
2018-05-14T08:58:57.517Z,11.10
2018-05-14T09:01:23.622Z,9.63
2018-05-14T09:03:49.690Z,11.90
2018-05-14T09:06:15.757Z,10.47
2018-05-14T09:08:41.850Z,11.57
2018-05-14T09:11:08.871Z,10.80
2018-05-14T09:13:34.783Z,11.10
2018-05-14T09:16:00.841Z,9.30
2018-05-14T09:18:26.933Z,10.50
2018-05-14T09:20:53.737Z,9.83
2018-05-14T09:23:19.815Z,9.77
2018-05-14T09:25:46.645Z,11.80
2018-05-14T09:28:14.187Z,11.30
2018-05-14T09:30:40.274Z,9.00
2018-05-14T09:33:06.366Z,8.10
2018-05-14T09:35:32.466Z,7.63
2018-05-14T09:37:59.319Z,9.90
2018-05-14T09:40:26.125Z,19.00
2018-05-14T09:42:52.209Z,8.43
2018-05-14T09:45:19.006Z,10.60
2018-05-14T09:47:45.089Z,12.70
2018-05-14T09:50:11.145Z,9.07
2018-05-14T09:52:37.946Z,9.50
2018-05-14T09:55:04.037Z,10.33
2018-05-14T09:57:30.089Z,9.90
2018-05-14T09:59:56.174Z,19.03
2018-05-14T10:02:22.229Z,10.23
2018-05-14T10:04:48.324Z,9.17
2018-05-14T10:07:14.377Z,11.07
2018-05-14T10:09:40.451Z,15.50
2018-05-14T10:12:07.310Z,11.00
2018-05-14T10:14:34.125Z,11.23
2018-05-14T10:17:00.201Z,9.97
2018-05-14T10:19:26.293Z,9.67
2018-05-14T10:21:52.407Z,11.73
2018-05-14T10:24:18.530Z,14.43
2018-05-14T10:26:45.376Z,12.10
2018-05-14T10:29:12.254Z,9.80
2018-05-14T10:31:38.341Z,13.57
2018-05-14T10:34:04.437Z,11.03
2018-05-14T10:36:30.554Z,12.60
2018-05-14T10:38:57.374Z,11.53
2018-05-14T10:41:23.481Z,14.93
2018-05-14T10:43:49.573Z,11.43
2018-05-14T10:46:15.710Z,10.13
2018-05-14T10:48:41.833Z,12.30
2018-05-14T10:51:07.978Z,11.73
2018-05-14T10:53:34.090Z,12.90
2018-05-14T10:56:00.229Z,10.17
2018-05-14T10:58:26.352Z,9.63
2018-05-14T11:00:52.441Z,10.97
2018-05-14T11:03:18.570Z,11.23
2018-05-14T11:05:44.679Z,9.50
2018-05-14T11:08:10.789Z,12.50
2018-05-14T11:10:37.680Z,13.10
2018-05-14T11:13:03.824Z,14.17
2018-05-14T11:15:29.945Z,11.00
2018-05-14T11:17:56.058Z,8.83
2018-05-14T11:20:22.153Z,11.50
2018-05-14T11:22:48.266Z,9.17
2018-05-14T11:25:14.395Z,9.77
2018-05-14T11:27:40.551Z,9.23
2018-05-14T11:30:06.613Z,10.30
2018-05-14T11:32:32.730Z,8.40
2018-05-14T11:34:58.860Z,10.13
2018-05-14T11:37:24.981Z,19.53
2018-05-14T11:39:51.110Z,8.47
2018-05-14T11:42:17.197Z,12.37
2018-05-14T11:44:43.290Z,13.80
2018-05-14T11:47:09.408Z,10.43
2018-05-14T11:49:36.262Z,9.27
2018-05-14T11:52:02.367Z,7.37
2018-05-14T11:54:28.482Z,11.37
2018-05-14T11:56:54.601Z,9.47
2018-05-14T11:59:20.707Z,7.87
2018-05-14T12:01:46.830Z,7.47
2018-05-14T12:04:12.918Z,9.10
2018-05-14T12:06:39.024Z,7.80
2018-05-14T12:09:05.131Z,8.37
2018-05-14T12:11:31.233Z,7.00
2018-05-14T12:13:57.353Z,9.10
2018-05-14T12:16:23.507Z,7.37
2018-05-14T12:18:49.545Z,11.73
2018-05-14T12:21:15.633Z,6.93
2018-05-14T12:23:41.751Z,7.70
2018-05-14T12:26:07.847Z,7.60
2018-05-14T12:28:34.693Z,6.50
2018-05-14T12:31:00.772Z,8.17
2018-05-14T12:33:26.881Z,6.73
2018-05-14T12:35:53.754Z,6.70
2018-05-14T12:38:19.837Z,8.50
2018-05-14T12:40:45.953Z,8.93
2018-05-14T12:43:12.004Z,8.70
2018-05-14T12:45:38.049Z,7.00
2018-05-14T12:48:04.141Z,7.60
2018-05-14T12:50:30.245Z,7.30
2018-05-14T12:52:56.311Z,6.10
2018-05-14T12:55:22.381Z,9.97
2018-05-14T12:57:48.457Z,7.77
2018-05-14T13:00:14.501Z,10.00
2018-05-14T13:02:40.573Z,8.67
2018-05-14T13:05:06.633Z,7.67
2018-05-14T13:07:32.686Z,10.20
2018-05-14T13:09:58.794Z,17.30
2018-05-14T13:12:24.861Z,8.13
2018-05-14T13:14:50.922Z,17.23
2018-05-14T13:17:17.043Z,14.13
2018-05-14T13:19:43.174Z,9.10
2018-05-14T13:22:09.261Z,12.67
2018-05-14T13:24:36.131Z,8.97
2018-05-14T13:27:02.239Z,8.83
2018-05-14T13:29:29.077Z,11.63
2018-05-14T13:31:55.191Z,9.83
2018-05-14T13:34:21.314Z,9.33
2018-05-14T13:36:47.430Z,10.10
2018-05-14T13:39:13.517Z,7.60
2018-05-14T13:41:39.581Z,8.03
2018-05-14T13:44:05.773Z,9.90
2018-05-14T13:46:31.837Z,7.97
2018-05-14T13:48:57.900Z,11.37
2018-05-14T13:51:24.812Z,8.40
2018-05-14T13:53:50.903Z,9.40
2018-05-14T13:56:17.742Z,10.33
2018-05-14T13:58:43.907Z,9.20
2018-05-14T14:01:10.001Z,8.77
2018-05-14T14:03:36.077Z,10.17
2018-05-14T14:06:02.918Z,8.80
2018-05-14T14:08:29.726Z,12.17
2018-05-14T14:10:55.830Z,7.43
2018-05-14T14:13:21.906Z,11.57
2018-05-14T14:15:47.973Z,8.27
2018-05-14T14:18:14.066Z,8.27
2018-05-14T14:20:40.125Z,9.90
2018-05-14T14:23:06.325Z,8.17
2018-05-14T14:25:32.287Z,7.00
2018-05-14T14:27:58.386Z,10.57
2018-05-14T14:30:25.193Z,7.23
2018-05-14T14:32:51.263Z,9.67
2018-05-14T14:35:17.381Z,7.77
2018-05-14T14:37:43.437Z,8.90
2018-05-14T14:40:09.513Z,6.47
2018-05-14T14:42:35.593Z,7.13
2018-05-14T14:45:01.702Z,7.80
2018-05-14T14:47:27.809Z,7.87
2018-05-14T14:49:53.905Z,6.40
2018-05-14T14:52:19.973Z,6.57
2018-05-14T14:54:46.846Z,8.13
2018-05-14T14:57:13.675Z,5.83
2018-05-14T14:59:39.734Z,5.80
2018-05-14T15:02:06.541Z,6.57
2018-05-14T15:04:32.605Z,6.87
2018-05-14T15:06:58.797Z,7.90
2018-05-14T15:09:24.781Z,8.80
2018-05-14T15:11:50.854Z,7.57
2018-05-14T15:14:16.954Z,6.83
2018-05-14T15:16:43.042Z,8.50
2018-05-14T15:19:09.129Z,7.73
2018-05-14T15:21:35.220Z,9.07
2018-05-14T15:24:01.343Z,6.53
2018-05-14T15:26:27.451Z,14.10
2018-05-14T15:28:53.529Z,8.13
2018-05-14T15:31:19.633Z,8.67
2018-05-14T15:33:46.449Z,5.53
2018-05-14T15:36:12.507Z,7.70
2018-05-14T15:38:38.589Z,9.00
2018-05-14T15:41:04.641Z,6.37
2018-05-14T15:43:30.730Z,6.50
2018-05-14T15:45:56.794Z,6.40
2018-05-14T15:48:22.877Z,7.20
2018-05-14T15:50:48.994Z,7.30
2018-05-14T15:53:15.107Z,8.60
2018-05-14T15:55:41.262Z,8.17
2018-05-14T15:58:07.407Z,8.87
2018-05-14T16:00:33.485Z,10.30
2018-05-14T16:02:59.590Z,13.70
2018-05-14T16:05:25.706Z,10.27
2018-05-14T16:07:51.842Z,15.73
2018-05-14T16:10:17.942Z,9.17
2018-05-14T16:12:44.066Z,9.43
2018-05-14T16:15:10.150Z,7.20
2018-05-14T16:17:36.290Z,7.57
2018-05-14T16:20:02.370Z,8.57
2018-05-14T16:22:28.429Z,10.90
2018-05-14T16:24:54.540Z,10.70
2018-05-14T16:27:20.617Z,8.03
2018-05-14T16:29:46.670Z,9.30
2018-05-14T16:32:12.769Z,12.10
2018-05-14T16:34:38.842Z,8.70
2018-05-14T16:37:05.673Z,10.70
2018-05-14T16:39:31.890Z,9.03
2018-05-14T16:41:58.081Z,8.77
2018-05-14T16:44:24.159Z,9.83
2018-05-14T16:46:50.263Z,7.73
2018-05-14T16:49:16.426Z,9.33
2018-05-14T16:51:42.558Z,7.20
2018-05-14T16:54:08.669Z,9.87
2018-05-14T16:56:35.501Z,8.73
2018-05-14T16:59:01.637Z,8.93
2018-05-14T17:01:27.757Z,6.40
2018-05-14T17:03:53.901Z,6.83
2018-05-14T17:06:20.058Z,7.60
2018-05-14T17:08:46.149Z,6.67
2018-05-14T17:11:12.246Z,13.50
2018-05-14T17:13:38.354Z,6.53
2018-05-14T17:16:04.460Z,7.50
2018-05-14T17:18:30.626Z,8.07
2018-05-14T17:20:56.826Z,7.70
2018-05-14T17:23:23.782Z,11.40
2018-05-14T17:25:50.669Z,8.20
2018-05-14T17:28:16.733Z,10.33
2018-05-14T17:30:42.848Z,9.73
2018-05-14T17:33:08.921Z,8.27
2018-05-14T17:35:35.143Z,9.40
2018-05-14T17:38:01.254Z,13.53
2018-05-14T17:40:27.408Z,9.53
2018-05-14T17:42:53.641Z,10.00
2018-05-14T17:45:20.473Z,8.90
2018-05-14T17:47:46.529Z,8.90
2018-05-14T17:50:12.681Z,12.80
2018-05-14T17:52:38.769Z,11.07
2018-05-14T17:55:05.641Z,8.73
2018-05-14T17:57:32.466Z,9.80
2018-05-14T17:59:58.625Z,9.20
2018-05-14T18:02:25.623Z,8.70
2018-05-14T18:04:51.723Z,9.20
2018-05-14T18:07:18.532Z,14.07
2018-05-14T18:09:44.645Z,14.83
2018-05-14T18:12:10.766Z,9.93
2018-05-14T18:14:36.941Z,12.40
2018-05-14T18:17:03.077Z,9.30
2018-05-14T18:19:35.381Z,10.03
2018-05-14T18:22:07.677Z,8.87
2018-05-14T18:24:33.866Z,8.87
2018-05-14T18:27:00.062Z,9.07
2018-05-14T18:29:29.957Z,13.13
2018-05-14T18:31:56.069Z,15.80
2018-05-14T18:34:28.517Z,7.87
2018-05-14T18:36:54.677Z,8.53
2018-05-14T18:39:21.482Z,9.23
2018-05-14T18:41:47.569Z,7.17
2018-05-14T18:44:14.430Z,8.10
2018-05-14T18:46:41.232Z,6.10
2018-05-14T18:49:07.426Z,7.10
2018-05-14T18:51:34.306Z,6.80
2018-05-14T18:54:00.401Z,5.60
2018-05-14T18:56:26.585Z,6.50
2018-05-14T18:58:52.697Z,9.27
2018-05-14T19:01:18.860Z,9.97
2018-05-14T19:03:44.930Z,6.00
2018-05-14T19:06:11.009Z,6.90
2018-05-14T19:08:37.840Z,7.47
2018-05-14T19:11:10.095Z,7.13
2018-05-14T19:13:36.172Z,9.00
2018-05-14T19:16:09.218Z,4.00
2018-05-14T19:18:35.372Z,9.20
2018-05-14T19:21:01.367Z,8.57
2018-05-14T19:23:33.570Z,8.57
2018-05-14T19:25:59.640Z,4.97
2018-05-14T19:28:31.930Z,4.40
2018-05-14T19:30:58.006Z,13.60
2018-05-14T19:33:30.170Z,8.53
2018-05-14T19:35:57.080Z,6.90
2018-05-14T19:38:23.116Z,8.40
2018-05-14T19:40:51.110Z,4.10
2018-05-14T19:43:17.202Z,7.00
2018-05-14T19:45:43.334Z,11.53
2018-05-14T19:48:09.493Z,4.27
2018-05-14T19:50:35.619Z,6.67
2018-05-14T19:53:01.700Z,5.13
2018-05-14T19:55:27.818Z,5.30
2018-05-14T19:57:53.908Z,5.97
2018-05-14T20:00:20.773Z,3.53
2018-05-14T20:02:47.709Z,6.20
2018-05-14T20:05:13.811Z,5.20
2018-05-14T20:07:39.929Z,5.03
2018-05-14T20:10:06.034Z,7.60
2018-05-14T20:12:32.155Z,4.43
2018-05-14T20:14:58.287Z,12.90
2018-05-14T20:17:24.382Z,5.73
2018-05-14T20:19:50.544Z,5.30
2018-05-14T20:22:16.621Z,9.60
2018-05-14T20:24:42.838Z,5.50
2018-05-14T20:27:09.051Z,5.67
2018-05-14T20:29:35.230Z,7.77
2018-05-14T20:32:01.342Z,7.10
2018-05-14T20:34:27.450Z,6.60
2018-05-14T20:36:54.330Z,9.07
2018-05-14T20:39:20.453Z,6.73
2018-05-14T20:41:46.553Z,8.80
2018-05-14T20:44:12.687Z,8.73
2018-05-14T20:46:38.860Z,7.63
2018-05-14T20:49:05.709Z,7.63
2018-05-14T20:51:32.597Z,5.73
2018-05-14T20:53:58.706Z,5.90
2018-05-14T20:56:25.550Z,5.23
2018-05-14T20:58:52.458Z,7.40
2018-05-14T21:01:18.579Z,11.80
2018-05-14T21:03:44.750Z,7.70
2018-05-14T21:06:10.838Z,6.00
2018-05-14T21:08:37.654Z,5.67
2018-05-14T21:11:03.773Z,7.07
2018-05-14T21:13:29.901Z,4.77
2018-05-14T21:15:56.096Z,6.30
2018-05-14T21:18:22.206Z,5.67
2018-05-14T21:20:48.317Z,10.80
2018-05-14T21:23:14.409Z,4.83
2018-05-14T21:25:40.648Z,8.50
2018-05-14T21:28:06.749Z,7.77
2018-05-14T21:30:32.834Z,7.53
2018-05-14T21:32:59.750Z,8.67
2018-05-14T21:35:25.827Z,5.97
2018-05-14T21:37:52.678Z,6.53
2018-05-14T21:40:19.502Z,6.80
2018-05-14T21:42:45.629Z,4.50
2018-05-14T21:45:11.753Z,11.13
2018-05-14T21:47:37.885Z,7.43
2018-05-14T21:50:03.997Z,6.90
2018-05-14T21:52:30.947Z,6.40
2018-05-14T21:54:57.898Z,6.70
2018-05-14T21:57:24.020Z,5.27
2018-05-14T21:59:50.114Z,5.70
2018-05-14T22:02:16.282Z,7.77
2018-05-14T22:04:42.422Z,7.27
2018-05-14T22:07:08.539Z,7.80
2018-05-14T22:09:34.621Z,7.20
2018-05-14T22:12:00.801Z,5.63
2018-05-14T22:14:26.945Z,7.80
2018-05-14T22:16:53.065Z,9.23
2018-05-14T22:19:19.932Z,10.47
2018-05-14T22:21:46.054Z,7.50
2018-05-14T22:24:12.933Z,6.23
2018-05-14T22:26:39.136Z,7.10
2018-05-14T22:29:05.212Z,7.20
2018-05-14T22:31:31.353Z,5.40
2018-05-14T22:33:57.527Z,19.20
2018-05-14T22:36:24.303Z,9.13
2018-05-14T22:38:50.412Z,9.73
2018-05-14T22:41:16.497Z,5.40
2018-05-14T22:43:42.725Z,7.43
2018-05-14T22:46:08.995Z,9.33
2018-05-14T22:48:35.085Z,6.50
2018-05-14T22:51:01.241Z,10.40
2018-05-14T22:53:27.363Z,8.27
2018-05-14T22:55:53.477Z,8.37
2018-05-14T22:58:19.627Z,11.83
2018-05-14T23:00:45.761Z,7.80
2018-05-14T23:03:11.933Z,7.00
2018-05-14T23:05:38.829Z,7.23
2018-05-14T23:08:04.994Z,8.27
2018-05-14T23:10:31.121Z,11.30
2018-05-14T23:12:57.238Z,13.17
2018-05-14T23:15:23.365Z,5.50
2018-05-14T23:17:50.222Z,8.70
2018-05-14T23:20:17.041Z,6.30
2018-05-14T23:22:43.150Z,7.00
2018-05-14T23:25:09.231Z,6.07
2018-05-14T23:27:35.357Z,6.97
2018-05-14T23:30:01.459Z,7.67
2018-05-14T23:32:27.647Z,10.83
2018-05-14T23:34:53.845Z,7.00
2018-05-14T23:37:19.929Z,7.73
2018-05-14T23:39:46.062Z,6.80
2018-05-14T23:42:12.155Z,10.43
2018-05-14T23:44:38.309Z,7.13
2018-05-14T23:47:04.413Z,7.20
2018-05-14T23:49:30.668Z,8.50
2018-05-14T23:51:56.757Z,7.27
2018-05-14T23:54:22.845Z,7.70
2018-05-14T23:56:49.012Z,8.10
2018-05-14T23:59:15.092Z,9.10
